SBOSBO ALC / LEAL
Speedbird OnlineSpeedbird Online ALC / LEAL

Alicante International Airport
06:54 5.2°C

Location Alicante, Spain
Latitude: 38.28219985961914
Longitude: -0.5581560134887695
Web Airport Website | Wikipedia
Altitude 43 Meter / 142 Feet
Distance 1,471 KM / 914 Miles
from London.
Time Zone UTC +1 hours (Europe/Madrid)
Codes IATA: ALC
ICAO: LEAL
Currency £1 equals EUR 1.14
Runways
RunwayLength (m)Surface
103000Asphalt
283000Asphalt
Radio
TypeDescriptionFrequency
APPAPP118.8
ATISATIS113.8
GNDGND121.7
TWRTWR118.15
Live ATC
METAR LEAL 290530Z 01005KT 330V050 9999 FEW032 05/M00 Q1021 NOSIG
TAF TAF LEAL 290500Z 2906/3006 VRB04KT 9999 FEW040 TX13/2913Z TN03/2906Z PROB30 TEMPO 2906/2915 SHRA BKN025 FEW030TCU BECMG 2909/2911 04012KT BECMG 2918/2921 32007KT
Weather As Of 29 Jan 2023 06:54
Description Light rain
Wind 9 km/h from North (10°)
Cloud Cover 20%
Precipitation Rain: none, Snow: none
Sunrise 08:10
Sunset 18:20
Lounges Sala Costa Blanca, Main Terminal
Rotations During the last 90 days there were
76 flights from LGW
76 flights to LGW



Support Speedbird Online

© 2017-2023 Speedbird Online